createdAt,value
2023-04-24T00:01:27.988Z,7.67
2023-04-24T00:03:55.277Z,7.66
2023-04-24T00:06:24.666Z,7.64
2023-04-24T00:08:51.682Z,7.66
2023-04-24T00:11:19.119Z,7.62
2023-04-24T00:13:46.201Z,7.58
2023-04-24T00:16:13.260Z,7.55
2023-04-24T00:18:40.779Z,7.53
2023-04-24T00:21:08.100Z,7.49
2023-04-24T00:23:35.112Z,7.45
2023-04-24T00:26:02.069Z,7.44
2023-04-24T00:28:29.270Z,7.39
2023-04-24T00:30:57.726Z,7.36
2023-04-24T00:33:24.746Z,7.37
2023-04-24T00:35:52.148Z,7.35
2023-04-24T00:38:19.478Z,7.38
2023-04-24T00:40:48.622Z,7.39
2023-04-24T00:43:15.623Z,7.38
2023-04-24T00:45:42.500Z,7.36
2023-04-24T00:48:09.685Z,7.37
2023-04-24T00:50:37.479Z,7.40
2023-04-24T00:53:04.572Z,7.43
2023-04-24T00:55:32.731Z,7.42
2023-04-24T00:57:59.787Z,7.39
2023-04-24T01:00:26.708Z,7.36
2023-04-24T01:02:54.603Z,7.33
2023-04-24T01:05:21.852Z,7.34
2023-04-24T01:07:50.132Z,7.35
2023-04-24T01:10:18.855Z,7.33
2023-04-24T01:12:46.679Z,7.37
2023-04-24T01:15:13.613Z,7.37
2023-04-24T01:17:43.088Z,7.38
2023-04-24T01:20:10.594Z,7.37
2023-04-24T01:22:37.749Z,7.38
2023-04-24T01:25:05.144Z,7.41
2023-04-24T01:27:33.543Z,7.44
2023-04-24T01:30:01.081Z,7.41
2023-04-24T01:32:33.562Z,7.42
2023-04-24T01:35:00.587Z,7.39
2023-04-24T01:37:28.004Z,7.33
2023-04-24T01:39:55.178Z,7.24
2023-04-24T01:42:22.377Z,7.16
2023-04-24T01:44:49.404Z,7.10
2023-04-24T01:47:16.518Z,7.04
2023-04-24T01:49:43.831Z,6.91
2023-04-24T01:52:13.301Z,6.76
2023-04-24T01:54:40.380Z,6.59
2023-04-24T01:57:07.365Z,6.58
2023-04-24T01:59:34.599Z,6.56
2023-04-24T02:02:01.637Z,6.49
2023-04-24T02:04:28.910Z,6.34
2023-04-24T02:06:56.076Z,6.37
2023-04-24T02:09:23.031Z,6.41
2023-04-24T02:11:51.252Z,6.44
2023-04-24T02:14:19.009Z,6.38
2023-04-24T02:16:47.050Z,6.38
2023-04-24T02:19:14.068Z,6.41
2023-04-24T02:21:41.043Z,6.52
2023-04-24T02:24:09.770Z,6.55
2023-04-24T02:26:36.800Z,6.56
2023-04-24T02:29:03.795Z,6.61
2023-04-24T02:31:30.953Z,6.64
2023-04-24T02:33:58.075Z,6.72
2023-04-24T02:36:25.136Z,6.78
2023-04-24T02:38:52.186Z,6.80
2023-04-24T02:41:19.240Z,6.71
2023-04-24T02:43:46.366Z,6.70
2023-04-24T02:46:13.424Z,6.74
2023-04-24T02:48:40.513Z,6.79
2023-04-24T02:51:07.966Z,6.86
2023-04-24T02:53:35.172Z,6.91
2023-04-24T02:56:03.323Z,7.02
2023-04-24T02:58:30.335Z,7.11
2023-04-24T03:00:57.469Z,7.22
2023-04-24T03:03:25.226Z,7.31
2023-04-24T03:05:52.537Z,7.38
2023-04-24T03:08:19.506Z,7.50
2023-04-24T03:10:48.196Z,7.57
2023-04-24T03:13:17.148Z,7.64
2023-04-24T03:15:44.419Z,7.75
2023-04-24T03:18:11.696Z,7.82
2023-04-24T03:20:40.393Z,7.84
2023-04-24T03:23:08.254Z,7.87
2023-04-24T03:25:36.741Z,7.88
2023-04-24T03:28:04.183Z,7.94
2023-04-24T03:30:39.830Z,8.02
2023-04-24T03:33:08.189Z,8.09
2023-04-24T03:35:39.024Z,8.20
2023-04-24T03:38:09.994Z,8.35
2023-04-24T03:40:42.890Z,8.47
2023-04-24T03:43:42.333Z,8.61
2023-04-24T03:46:10.591Z,8.74
2023-04-24T03:48:42.576Z,8.88
2023-04-24T03:51:11.162Z,9.04
2023-04-24T03:53:41.119Z,9.21
2023-04-24T03:56:09.548Z,9.43
2023-04-24T03:58:36.588Z,9.60
2023-04-24T04:01:03.921Z,9.79
2023-04-24T04:04:00.644Z,10.05
2023-04-24T04:06:29.619Z,10.29
2023-04-24T04:08:58.338Z,10.54
2023-04-24T04:11:25.564Z,10.83
2023-04-24T04:13:52.745Z,11.10
2023-04-24T04:16:22.227Z,11.34
2023-04-24T04:18:52.135Z,11.61
2023-04-24T04:21:19.587Z,11.80
2023-04-24T04:23:47.920Z,12.05
2023-04-24T04:26:22.284Z,12.33
2023-04-24T04:29:18.457Z,12.68
2023-04-24T04:31:47.513Z,13.01
2023-04-24T04:34:15.601Z,13.28
2023-04-24T04:36:44.012Z,13.59
2023-04-24T04:39:34.149Z,13.83
2023-04-24T04:42:11.618Z,14.03
2023-04-24T04:44:42.817Z,14.21
2023-04-24T04:47:15.092Z,14.48
2023-04-24T04:49:44.323Z,14.72
2023-04-24T04:52:21.600Z,14.98
2023-04-24T04:54:53.211Z,15.30
2023-04-24T04:57:21.724Z,15.48
2023-04-24T04:59:48.890Z,15.73
2023-04-24T05:02:26.693Z,16.01
2023-04-24T05:04:54.047Z,16.30
2023-04-24T05:07:21.372Z,16.63
2023-04-24T05:09:52.686Z,16.86
2023-04-24T05:12:20.393Z,17.06
2023-04-24T05:14:52.044Z,17.28
2023-04-24T05:17:19.617Z,17.49
2023-04-24T05:19:47.518Z,17.73
2023-04-24T05:22:15.729Z,17.88
2023-04-24T05:24:49.258Z,18.07
2023-04-24T05:27:42.386Z,18.26
2023-04-24T05:30:15.271Z,18.36
2023-04-24T05:32:42.477Z,18.50
2023-04-24T05:35:09.644Z,18.65
2023-04-24T05:37:37.240Z,18.72
2023-04-24T05:40:06.316Z,18.89
2023-04-24T05:42:33.564Z,19.03
2023-04-24T05:45:00.726Z,19.13
2023-04-24T05:47:27.958Z,19.26
2023-04-24T05:49:55.621Z,19.43
2023-04-24T05:52:22.972Z,19.61
2023-04-24T05:54:50.773Z,19.80
2023-04-24T05:57:22.554Z,19.93
2023-04-24T06:00:00.249Z,20.09
2023-04-24T06:02:28.896Z,20.23
2023-04-24T06:04:56.596Z,20.39
2023-04-24T06:07:25.310Z,20.48
2023-04-24T06:09:52.515Z,20.54
2023-04-24T06:12:19.816Z,20.59
2023-04-24T06:14:57.969Z,20.57
2023-04-24T06:17:33.552Z,20.69
2023-04-24T06:20:00.635Z,20.76
2023-04-24T06:22:27.754Z,20.85
2023-04-24T06:24:54.673Z,20.82
2023-04-24T06:27:21.799Z,20.82
2023-04-24T06:29:55.312Z,20.96
2023-04-24T06:32:24.192Z,21.05
2023-04-24T06:34:52.968Z,21.20
2023-04-24T06:37:21.601Z,21.40
2023-04-24T06:39:48.707Z,21.54
2023-04-24T06:42:15.881Z,21.67
2023-04-24T06:44:44.614Z,21.87
2023-04-24T06:47:11.777Z,22.00
2023-04-24T06:49:38.822Z,22.03
2023-04-24T06:52:05.996Z,22.03
2023-04-24T06:54:33.277Z,22.22
2023-04-24T06:57:01.922Z,22.27
2023-04-24T06:59:29.315Z,22.34
2023-04-24T07:01:57.028Z,22.41
2023-04-24T07:04:26.272Z,22.52
2023-04-24T07:06:55.503Z,22.63
2023-04-24T07:09:24.776Z,22.68
2023-04-24T07:11:52.691Z,22.71
2023-04-24T07:14:19.725Z,22.77
2023-04-24T07:16:46.838Z,22.82
2023-04-24T07:19:14.303Z,22.98
2023-04-24T07:21:41.391Z,23.15
2023-04-24T07:24:12.033Z,23.17
2023-04-24T07:26:40.295Z,23.17
2023-04-24T07:29:07.900Z,23.15
2023-04-24T07:31:35.100Z,23.28
2023-04-24T07:34:02.429Z,23.24
2023-04-24T07:36:29.556Z,23.15
2023-04-24T07:38:57.753Z,23.17
2023-04-24T07:41:25.456Z,23.31
2023-04-24T07:43:54.736Z,23.34
2023-04-24T07:46:22.115Z,23.27
2023-04-24T07:48:58.520Z,23.15
2023-04-24T07:51:29.363Z,23.00
2023-04-24T07:53:56.400Z,22.86
2023-04-24T07:56:23.708Z,22.75
2023-04-24T07:58:50.760Z,22.73
2023-04-24T08:01:17.914Z,22.73
2023-04-24T08:03:45.215Z,22.74
2023-04-24T08:06:12.480Z,22.67
2023-04-24T08:08:39.462Z,22.74
2023-04-24T08:11:06.439Z,22.79
2023-04-24T08:13:33.496Z,22.79
2023-04-24T08:16:00.611Z,22.83
2023-04-24T08:18:27.698Z,22.88
2023-04-24T08:20:54.730Z,23.04
2023-04-24T08:23:21.904Z,23.08
2023-04-24T08:25:49.633Z,23.24
2023-04-24T08:28:21.089Z,23.29
2023-04-24T08:30:48.834Z,23.19
2023-04-24T08:33:16.226Z,23.27
2023-04-24T14:49:24.854Z,18.57
2023-04-24T14:51:51.923Z,18.57
2023-04-24T14:54:18.848Z,18.57
2023-04-24T14:56:46.041Z,18.56
2023-04-24T14:59:13.145Z,18.61
2023-04-24T15:01:40.130Z,18.62
2023-04-24T15:04:07.501Z,18.61
2023-04-24T15:06:34.644Z,18.59
2023-04-24T15:09:01.693Z,18.59
2023-04-24T15:11:29.056Z,18.59
2023-04-24T15:13:57.043Z,18.57
2023-04-24T15:16:25.047Z,18.56
2023-04-24T15:18:52.362Z,18.53
2023-04-24T15:21:19.423Z,18.47
2023-04-24T15:23:46.604Z,18.43
2023-04-24T15:26:14.343Z,18.38
2023-04-24T15:28:41.401Z,18.36
2023-04-24T15:31:08.378Z,18.32
2023-04-24T15:33:35.368Z,18.24
2023-04-24T15:36:02.510Z,18.19
2023-04-24T15:38:29.521Z,18.12
2023-04-24T15:40:56.480Z,18.07
2023-04-24T15:43:23.652Z,18.00
2023-04-24T15:45:51.281Z,17.93
2023-04-24T15:48:18.378Z,17.89
2023-04-24T15:50:45.518Z,17.81
2023-04-24T15:53:12.726Z,17.77
2023-04-24T15:55:39.944Z,17.71
2023-04-24T15:58:06.900Z,17.67
2023-04-24T16:00:37.200Z,17.61
2023-04-24T16:03:04.375Z,17.56
2023-04-24T16:05:32.148Z,17.49
2023-04-24T16:07:59.259Z,17.45
2023-04-24T16:10:26.784Z,17.38
2023-04-24T16:12:54.664Z,17.31
2023-04-24T16:15:21.824Z,17.20
2023-04-24T16:17:49.805Z,17.12
2023-04-24T16:20:16.872Z,17.01
2023-04-24T16:22:43.826Z,16.90
2023-04-24T16:25:11.359Z,16.79
2023-04-24T16:27:38.614Z,16.71
2023-04-24T16:30:06.353Z,16.61
2023-04-24T16:32:34.616Z,16.50
2023-04-24T16:35:01.565Z,16.43
2023-04-24T16:37:31.294Z,16.31
2023-04-24T16:39:58.475Z,16.17
2023-04-24T16:42:25.619Z,16.05
2023-04-24T16:44:52.684Z,15.92
2023-04-24T16:47:20.359Z,15.79
2023-04-24T16:49:47.502Z,15.65
2023-04-24T16:52:14.485Z,15.56
2023-04-24T16:54:41.714Z,15.45
2023-04-24T16:57:08.698Z,15.33
2023-04-24T16:59:35.841Z,15.19
2023-04-24T17:02:03.006Z,15.09
2023-04-24T17:04:30.369Z,14.96
2023-04-24T17:06:57.684Z,14.91
2023-04-24T17:09:24.756Z,14.87
2023-04-24T17:11:51.888Z,14.79
2023-04-24T17:14:19.069Z,14.66
2023-04-24T17:16:46.314Z,14.51
2023-04-24T17:19:13.414Z,14.40
2023-04-24T17:21:40.737Z,14.31
2023-04-24T17:24:08.021Z,14.25
2023-04-24T17:26:35.213Z,14.18
2023-04-24T17:29:02.312Z,14.15
2023-04-24T17:31:29.503Z,14.11
2023-04-24T17:33:56.625Z,14.07
2023-04-24T17:36:23.629Z,14.07
2023-04-24T17:38:51.189Z,14.04
2023-04-24T17:41:18.420Z,14.00
2023-04-24T17:43:45.853Z,13.99
2023-04-24T17:46:13.389Z,14.00
2023-04-24T17:48:40.594Z,13.97
2023-04-24T17:51:08.433Z,13.95
2023-04-24T17:53:35.501Z,13.94
2023-04-24T17:56:03.992Z,13.92
2023-04-24T17:58:31.409Z,13.88
2023-04-24T18:00:58.441Z,13.83
2023-04-24T18:03:25.564Z,13.76
2023-04-24T18:05:52.750Z,13.72
2023-04-24T18:08:19.793Z,13.70
2023-04-24T18:10:46.920Z,13.70
2023-04-24T18:13:13.978Z,13.72
2023-04-24T18:15:43.340Z,13.72
2023-04-24T18:18:11.310Z,13.73
2023-04-24T18:20:38.559Z,13.71
2023-04-24T18:23:05.755Z,13.69
2023-04-24T18:25:32.961Z,13.67
2023-04-24T18:28:00.014Z,13.66
2023-04-24T18:30:28.302Z,13.63
2023-04-24T18:32:55.481Z,13.61
2023-04-24T18:35:23.066Z,13.58
2023-04-24T18:37:50.687Z,13.57
2023-04-24T18:40:17.899Z,13.60
2023-04-24T18:42:45.180Z,13.58
2023-04-24T18:45:14.707Z,13.54
2023-04-24T18:47:43.674Z,13.51
2023-04-24T18:50:11.364Z,13.49
2023-04-24T18:52:38.549Z,13.46
2023-04-24T18:55:07.075Z,13.44
2023-04-24T18:57:34.871Z,13.41
2023-04-24T19:00:02.059Z,13.38
2023-04-24T19:02:34.856Z,13.35
2023-04-24T19:05:02.797Z,13.32
2023-04-24T19:07:33.813Z,13.32
2023-04-24T19:10:00.781Z,13.30
2023-04-24T19:12:27.749Z,13.28
2023-04-24T19:14:56.184Z,13.24
2023-04-24T19:17:25.205Z,13.22
2023-04-24T19:19:52.449Z,13.21
2023-04-24T19:22:20.747Z,13.19
2023-04-24T19:24:47.792Z,13.13
2023-04-24T19:27:14.933Z,13.06
2023-04-24T19:29:42.243Z,13.02
2023-04-24T19:32:09.484Z,12.97
2023-04-24T19:34:38.387Z,12.93
2023-04-24T19:37:08.234Z,12.92
2023-04-24T19:39:35.398Z,12.90
2023-04-24T19:42:07.098Z,12.87
2023-04-24T19:44:34.841Z,12.85
2023-04-24T19:47:01.937Z,12.77
2023-04-24T19:49:29.030Z,12.77
2023-04-24T19:51:56.061Z,12.74
2023-04-24T19:54:23.514Z,12.71
2023-04-24T19:56:50.630Z,12.69
2023-04-24T19:59:17.740Z,12.66
2023-04-24T20:01:44.830Z,12.65
2023-04-24T20:04:12.172Z,12.60
2023-04-24T20:06:39.317Z,12.53
2023-04-24T20:09:06.403Z,12.43
2023-04-24T20:11:34.032Z,12.31
2023-04-24T20:14:03.923Z,12.18
2023-04-24T20:16:31.438Z,12.11
2023-04-24T20:18:58.887Z,12.01
2023-04-24T20:21:26.720Z,11.95
2023-04-24T20:23:53.789Z,11.95
2023-04-24T20:26:21.748Z,12.00
2023-04-24T20:28:49.172Z,12.08
2023-04-24T20:31:16.579Z,12.11
2023-04-24T20:33:45.550Z,12.11
2023-04-24T20:36:12.555Z,12.11
2023-04-24T20:38:39.503Z,12.12
2023-04-24T20:41:08.450Z,12.08
2023-04-24T20:43:35.500Z,12.06
2023-04-24T20:46:02.777Z,12.01
2023-04-24T20:48:29.835Z,11.97
2023-04-24T20:50:57.019Z,11.94
2023-04-24T20:53:24.267Z,11.94
2023-04-24T20:55:51.369Z,11.93
2023-04-24T20:58:22.223Z,11.93
2023-04-24T21:00:49.697Z,11.95
2023-04-24T21:03:17.161Z,11.94
2023-04-24T21:05:44.360Z,11.95
2023-04-24T21:08:11.788Z,11.88
2023-04-24T21:10:38.816Z,11.76
2023-04-24T21:13:05.976Z,11.72
2023-04-24T21:15:33.484Z,11.70
2023-04-24T21:18:00.774Z,11.66
2023-04-24T21:20:27.834Z,11.64
2023-04-24T21:22:54.757Z,11.65
2023-04-24T21:25:21.765Z,11.63
2023-04-24T21:27:48.793Z,11.65
2023-04-24T21:30:15.835Z,11.64
2023-04-24T21:32:43.120Z,11.62
2023-04-24T21:35:10.384Z,11.69
2023-04-24T21:37:39.370Z,12.00
2023-04-24T21:40:07.868Z,12.06
2023-04-24T21:42:35.075Z,11.97
2023-04-24T21:45:02.273Z,11.85
2023-04-24T21:47:32.254Z,11.78
2023-04-24T21:49:59.387Z,11.77
2023-04-24T21:52:26.350Z,11.75
2023-04-24T21:54:53.530Z,11.67
2023-04-24T21:57:20.842Z,11.58
2023-04-24T21:59:47.882Z,11.51
2023-04-24T22:02:14.994Z,11.47
2023-04-24T22:04:43.110Z,11.47
2023-04-24T22:07:10.351Z,11.47
2023-04-24T22:09:37.450Z,11.50
2023-04-24T22:12:05.123Z,11.58
2023-04-24T22:14:32.405Z,11.64
2023-04-24T22:16:59.545Z,11.66
2023-04-24T22:19:28.255Z,11.65
2023-04-24T22:21:55.350Z,11.63
2023-04-24T22:24:22.397Z,11.61
2023-04-24T22:26:49.922Z,11.55
2023-04-24T22:29:17.016Z,11.49
2023-04-24T22:31:45.212Z,11.44
2023-04-24T22:34:12.318Z,11.45
2023-04-24T22:36:39.544Z,11.44
2023-04-24T22:39:07.413Z,11.45
2023-04-24T22:41:34.641Z,11.44
2023-04-24T22:44:01.519Z,11.41
2023-04-24T22:46:28.713Z,11.44
2023-04-24T22:48:58.502Z,11.43
2023-04-24T22:51:26.136Z,11.40
2023-04-24T22:53:54.618Z,11.36
2023-04-24T22:56:21.668Z,11.34
2023-04-24T22:58:48.632Z,11.24
2023-04-24T23:01:15.762Z,11.17
2023-04-24T23:03:43.588Z,11.16
2023-04-24T23:06:10.744Z,11.13
2023-04-24T23:08:37.777Z,11.15
2023-04-24T23:11:04.808Z,11.17
2023-04-24T23:13:31.821Z,11.15
2023-04-24T23:15:58.815Z,11.11
2023-04-24T23:18:26.100Z,10.99
2023-04-24T23:20:53.084Z,10.84
2023-04-24T23:23:20.213Z,10.69
2023-04-24T23:25:47.266Z,10.56
2023-04-24T23:28:14.382Z,10.42
2023-04-24T23:30:41.343Z,10.31
2023-04-24T23:33:08.649Z,10.27
2023-04-24T23:35:36.265Z,10.22
2023-04-24T23:38:03.287Z,10.18
2023-04-24T23:40:30.723Z,10.14
2023-04-24T23:43:06.889Z,10.12
2023-04-24T23:45:35.708Z,10.13
2023-04-24T23:48:04.162Z,10.08
2023-04-24T23:50:31.312Z,10.03
2023-04-24T23:52:58.974Z,9.95
2023-04-24T23:55:26.119Z,9.88
2023-04-24T23:57:53.072Z,9.83
